sensor_id;sensor_type;location;lat;lon;timestamp;pressure;altitude;pressure_sealevel;temperature;humidity
50484;BME280;36409;52.168;20.878;2022-09-09T00:00:53;100240.41;;;12.20;55.73
50484;BME280;36409;52.168;20.878;2022-09-09T00:03:45;100248.38;;;12.14;56.22
50484;BME280;36409;52.168;20.878;2022-09-09T00:06:24;100245.13;;;12.04;56.20
50484;BME280;36409;52.168;20.878;2022-09-09T00:09:04;100240.89;;;11.98;56.76
50484;BME280;36409;52.168;20.878;2022-09-09T00:11:42;100248.86;;;11.90;57.32
50484;BME280;36409;52.168;20.878;2022-09-09T00:14:20;100241.97;;;11.86;56.62
50484;BME280;36409;52.168;20.878;2022-09-09T00:16:58;100249.97;;;11.79;57.41
50484;BME280;36409;52.168;20.878;2022-09-09T00:19:37;100259.59;;;11.77;57.63
50484;BME280;36409;52.168;20.878;2022-09-09T00:22:17;100247.51;;;11.71;57.76
50484;BME280;36409;52.168;20.878;2022-09-09T00:24:53;100254.55;;;11.69;57.96
50484;BME280;36409;52.168;20.878;2022-09-09T00:27:29;100254.66;;;11.63;57.97
50484;BME280;36409;52.168;20.878;2022-09-09T00:30:15;100256.44;;;11.61;58.44
50484;BME280;36409;52.168;20.878;2022-09-09T00:32:54;100259.14;;;11.56;58.30
50484;BME280;36409;52.168;20.878;2022-09-09T00:35:31;100260.95;;;11.54;59.17
50484;BME280;36409;52.168;20.878;2022-09-09T00:38:10;100254.91;;;11.50;58.86
50484;BME280;36409;52.168;20.878;2022-09-09T00:40:50;100257.55;;;11.49;58.45
50484;BME280;36409;52.168;20.878;2022-09-09T00:43:31;100254.11;;;11.47;58.90
50484;BME280;36409;52.168;20.878;2022-09-09T00:49:29;100263.81;;;11.40;59.50
50484;BME280;36409;52.168;20.878;2022-09-09T00:52:21;100263.02;;;11.36;59.43
50484;BME280;36409;52.168;20.878;2022-09-09T00:55:01;100267.39;;;11.36;59.66
50484;BME280;36409;52.168;20.878;2022-09-09T00:57:36;100263.06;;;11.35;60.13
50484;BME280;36409;52.168;20.878;2022-09-09T01:00:22;100254.33;;;11.36;59.73
50484;BME280;36409;52.168;20.878;2022-09-09T01:03:05;100249.95;;;11.36;59.97
50484;BME280;36409;52.168;20.878;2022-09-09T01:05:46;100244.77;;;11.35;60.00
50484;BME280;36409;52.168;20.878;2022-09-09T01:08:42;100249.11;;;11.36;60.47
50484;BME280;36409;52.168;20.878;2022-09-09T01:11:20;100244.86;;;11.30;60.87
50484;BME280;36409;52.168;20.878;2022-09-09T01:13:56;100240.53;;;11.27;60.86
50484;BME280;36409;52.168;20.878;2022-09-09T01:16:32;100235.34;;;11.26;60.96
50484;BME280;36409;52.168;20.878;2022-09-09T01:19:10;100238.80;;;11.26;61.42
50484;BME280;36409;52.168;20.878;2022-09-09T01:21:52;100235.34;;;11.26;60.62
50484;BME280;36409;52.168;20.878;2022-09-09T01:24:34;100233.63;;;11.25;60.76
50484;BME280;36409;52.168;20.878;2022-09-09T01:27:23;100234.55;;;11.21;61.01
50484;BME280;36409;52.168;20.878;2022-09-09T01:29:57;100231.89;;;11.24;61.31
50484;BME280;36409;52.168;20.878;2022-09-09T01:32:43;100230.16;;;11.24;61.99
50484;BME280;36409;52.168;20.878;2022-09-09T01:35:27;100235.34;;;11.26;61.64
50484;BME280;36409;52.168;20.878;2022-09-09T01:38:02;100232.77;;;11.24;62.05
50484;BME280;36409;52.168;20.878;2022-09-09T01:40:40;100239.69;;;11.27;61.82
50484;BME280;36409;52.168;20.878;2022-09-09T01:43:12;100240.53;;;11.27;62.40
50484;BME280;36409;52.168;20.878;2022-09-09T01:45:46;100237.02;;;11.30;61.85
50484;BME280;36409;52.168;20.878;2022-09-09T01:48:19;100243.05;;;11.32;62.20
50484;BME280;36409;52.168;20.878;2022-09-09T01:51:04;100239.55;;;11.35;61.81
50484;BME280;36409;52.168;20.878;2022-09-09T01:53:36;100239.55;;;11.33;62.68
50484;BME280;36409;52.168;20.878;2022-09-09T01:56:28;100235.21;;;11.32;62.49
50484;BME280;36409;52.168;20.878;2022-09-09T01:59:11;100236.94;;;11.33;62.99
50484;BME280;36409;52.168;20.878;2022-09-09T02:01:59;100232.59;;;11.34;62.31
50484;BME280;36409;52.168;20.878;2022-09-09T02:04:41;100234.31;;;11.35;62.52
50484;BME280;36409;52.168;20.878;2022-09-09T02:07:37;100236.00;;;11.37;63.27
50484;BME280;36409;52.168;20.878;2022-09-09T02:10:19;100225.59;;;11.36;62.56
50484;BME280;36409;52.168;20.878;2022-09-09T02:13:03;100221.20;;;11.36;63.02
50484;BME280;36409;52.168;20.878;2022-09-09T02:15:42;100223.82;;;11.36;62.69
50484;BME280;36409;52.168;20.878;2022-09-09T02:18:22;100223.82;;;11.36;62.91
50484;BME280;36409;52.168;20.878;2022-09-09T02:20:57;100218.59;;;11.36;63.08
50484;BME280;36409;52.168;20.878;2022-09-09T02:23:31;100223.78;;;11.38;63.01
50484;BME280;36409;52.168;20.878;2022-09-09T02:26:07;100227.23;;;11.40;63.29
50484;BME280;36409;52.168;20.878;2022-09-09T02:28:41;100233.33;;;11.40;63.14
50484;BME280;36409;52.168;20.878;2022-09-09T02:31:16;100235.02;;;11.43;63.40
50484;BME280;36409;52.168;20.878;2022-09-09T02:33:54;100240.24;;;11.43;63.64
50484;BME280;36409;52.168;20.878;2022-09-09T02:36:31;100235.02;;;11.43;63.35
50484;BME280;36409;52.168;20.878;2022-09-09T02:39:07;100238.48;;;11.43;64.32
50484;BME280;36409;52.168;20.878;2022-09-09T02:41:42;100235.06;;;11.41;64.07
50484;BME280;36409;52.168;20.878;2022-09-09T02:44:15;100241.13;;;11.42;64.01
50484;BME280;36409;52.168;20.878;2022-09-09T02:47:04;100241.13;;;11.42;64.65
50484;BME280;36409;52.168;20.878;2022-09-09T02:49:44;100242.01;;;11.42;64.21
50484;BME280;36409;52.168;20.878;2022-09-09T02:52:26;100237.67;;;11.41;64.52
50484;BME280;36409;52.168;20.878;2022-09-09T02:55:06;100238.52;;;11.42;64.40
50484;BME280;36409;52.168;20.878;2022-09-09T02:57:41;100238.48;;;11.43;64.04
50484;BME280;36409;52.168;20.878;2022-09-09T03:00:16;100239.36;;;11.44;64.18
50484;BME280;36409;52.168;20.878;2022-09-09T03:02:55;100233.25;;;11.43;64.90
50484;BME280;36409;52.168;20.878;2022-09-09T03:05:29;100228.94;;;11.42;64.29
50484;BME280;36409;52.168;20.878;2022-09-09T03:08:02;100231.55;;;11.42;64.20
50484;BME280;36409;52.168;20.878;2022-09-09T03:10:35;100233.30;;;11.42;65.18
50484;BME280;36409;52.168;20.878;2022-09-09T03:13:08;100230.67;;;11.42;65.51
50484;BME280;36409;52.168;20.878;2022-09-09T03:15:42;100229.79;;;11.43;65.20
50484;BME280;36409;52.168;20.878;2022-09-09T03:18:20;100228.94;;;11.42;64.77
50484;BME280;36409;52.168;20.878;2022-09-09T03:20:55;100228.06;;;11.42;65.40
50484;BME280;36409;52.168;20.878;2022-09-09T03:23:29;100228.11;;;11.40;64.84
50484;BME280;36409;52.168;20.878;2022-09-09T03:26:02;100228.11;;;11.40;64.69
50484;BME280;36409;52.168;20.878;2022-09-09T03:28:42;100228.95;;;11.41;65.47
50484;BME280;36409;52.168;20.878;2022-09-09T03:31:17;100229.79;;;11.43;65.18
50484;BME280;36409;52.168;20.878;2022-09-09T03:33:50;100223.67;;;11.44;65.08
50484;BME280;36409;52.168;20.878;2022-09-09T03:36:23;100226.28;;;11.44;66.20
50484;BME280;36409;52.168;20.878;2022-09-09T03:38:57;100225.40;;;11.45;65.50
50484;BME280;36409;52.168;20.878;2022-09-09T03:41:31;100232.36;;;11.44;65.85
50484;BME280;36409;52.168;20.878;2022-09-09T03:44:04;100234.09;;;11.46;65.33
50484;BME280;36409;52.168;20.878;2022-09-09T03:46:40;100236.69;;;11.47;66.33
50484;BME280;36409;52.168;20.878;2022-09-09T03:49:12;100236.69;;;11.47;65.79
50484;BME280;36409;52.168;20.878;2022-09-09T03:51:46;100235.81;;;11.47;65.46
50484;BME280;36409;52.168;20.878;2022-09-09T03:54:19;100228.85;;;11.47;66.59
50484;BME280;36409;52.168;20.878;2022-09-09T03:56:51;100240.98;;;11.50;65.65
50484;BME280;36409;52.168;20.878;2022-09-09T03:59:23;100237.49;;;11.49;66.77
50484;BME280;36409;52.168;20.878;2022-09-09T04:01:56;100243.59;;;11.50;66.95
50484;BME280;36409;52.168;20.878;2022-09-09T04:04:30;100237.49;;;11.49;66.51
50484;BME280;36409;52.168;20.878;2022-09-09T04:07:03;100232.27;;;11.49;66.86
50484;BME280;36409;52.168;20.878;2022-09-09T04:09:38;100225.36;;;11.47;65.92
50484;BME280;36409;52.168;20.878;2022-09-09T04:12:10;100225.40;;;11.45;66.53
50484;BME280;36409;52.168;20.878;2022-09-09T04:14:44;100233.20;;;11.47;66.99
50484;BME280;36409;52.168;20.878;2022-09-09T04:17:17;100232.31;;;11.48;66.64
50484;BME280;36409;52.168;20.878;2022-09-09T04:19:52;100232.34;;;11.46;66.28
50484;BME280;36409;52.168;20.878;2022-09-09T04:22:25;100231.46;;;11.47;66.62
50484;BME280;36409;52.168;20.878;2022-09-09T04:24:57;100229.70;;;11.48;66.55
50484;BME280;36409;52.168;20.878;2022-09-09T04:27:31;100224.42;;;11.49;67.41
50484;BME280;36409;52.168;20.878;2022-09-09T04:30:05;100239.20;;;11.52;66.91
50484;BME280;36409;52.168;20.878;2022-09-09T04:32:39;100237.43;;;11.54;67.10
50484;BME280;36409;52.168;20.878;2022-09-09T04:35:12;100233.01;;;11.56;67.34
50484;BME280;36409;52.168;20.878;2022-09-09T04:37:44;100232.06;;;11.60;67.27
50484;BME280;36409;52.168;20.878;2022-09-09T04:40:17;100237.29;;;11.60;67.19
50484;BME280;36409;52.168;20.878;2022-09-09T04:42:52;100236.45;;;11.59;67.58
50484;BME280;36409;52.168;20.878;2022-09-09T04:45:24;100240.75;;;11.61;67.38
50484;BME280;36409;52.168;20.878;2022-09-09T04:47:57;100244.20;;;11.63;67.71
50484;BME280;36409;52.168;20.878;2022-09-09T04:50:30;100246.80;;;11.64;67.51
50484;BME280;36409;52.168;20.878;2022-09-09T04:53:03;100251.16;;;11.64;67.56
50484;BME280;36409;52.168;20.878;2022-09-09T04:55:37;100243.27;;;11.65;68.12
50484;BME280;36409;52.168;20.878;2022-09-09T04:58:10;100241.58;;;11.64;67.45
50484;BME280;36409;52.168;20.878;2022-09-09T05:00:42;100246.72;;;11.67;67.68
50484;BME280;36409;52.168;20.878;2022-09-09T05:03:15;100245.88;;;11.67;68.05
50484;BME280;36409;52.168;20.878;2022-09-09T05:05:47;100258.89;;;11.70;68.14
50484;BME280;36409;52.168;20.878;2022-09-09T05:08:20;100254.46;;;11.72;68.25
50484;BME280;36409;52.168;20.878;2022-09-09T05:10:53;100257.06;;;11.73;67.82
50484;BME280;36409;52.168;20.878;2022-09-09T05:13:26;100256.17;;;11.74;67.88
50484;BME280;36409;52.168;20.878;2022-09-09T05:15:59;100256.17;;;11.74;68.42
50484;BME280;36409;52.168;20.878;2022-09-09T05:18:31;100263.09;;;11.77;68.32
50484;BME280;36409;52.168;20.878;2022-09-09T05:21:04;100256.97;;;11.78;68.26
50484;BME280;36409;52.168;20.878;2022-09-09T05:23:37;100256.92;;;11.80;68.46
50484;BME280;36409;52.168;20.878;2022-09-09T05:26:11;100256.92;;;11.80;68.04
50484;BME280;36409;52.168;20.878;2022-09-09T05:28:49;100266.45;;;11.82;68.75
50484;BME280;36409;52.168;20.878;2022-09-09T05:31:24;100260.33;;;11.83;68.19
50484;BME280;36409;52.168;20.878;2022-09-09T05:33:59;100257.66;;;11.86;68.57
50484;BME280;36409;52.168;20.878;2022-09-09T05:36:31;100252.38;;;11.88;67.93
50484;BME280;36409;52.168;20.878;2022-09-09T05:39:03;100259.33;;;11.90;68.04
50484;BME280;36409;52.168;20.878;2022-09-09T05:41:36;100253.20;;;11.92;69.00
50484;BME280;36409;52.168;20.878;2022-09-09T05:44:11;100252.27;;;11.94;68.52
50484;BME280;36409;52.168;20.878;2022-09-09T05:46:46;100240.91;;;11.95;68.81
50484;BME280;36409;52.168;20.878;2022-09-09T05:49:19;100248.73;;;11.98;68.81
50484;BME280;36409;52.168;20.878;2022-09-09T05:51:52;100260.87;;;12.01;68.07
50484;BME280;36409;52.168;20.878;2022-09-09T05:54:26;100252.14;;;12.02;68.76
50484;BME280;36409;52.168;20.878;2022-09-09T05:56:58;100249.48;;;12.03;68.48
50484;BME280;36409;52.168;20.878;2022-09-09T05:59:32;100256.39;;;12.06;69.13
50484;BME280;36409;52.168;20.878;2022-09-09T06:02:05;100262.45;;;12.08;69.08
50484;BME280;36409;52.168;20.878;2022-09-09T06:04:39;100262.44;;;12.10;68.39
50484;BME280;36409;52.168;20.878;2022-09-09T06:07:11;100266.75;;;12.11;68.71
50484;BME280;36409;52.168;20.878;2022-09-09T06:09:45;100272.80;;;12.14;68.68
50484;BME280;36409;52.168;20.878;2022-09-09T06:12:18;100270.14;;;12.16;68.25
50484;BME280;36409;52.168;20.878;2022-09-09T06:14:51;100273.59;;;12.18;68.33
50484;BME280;36409;52.168;20.878;2022-09-09T06:17:23;100279.61;;;12.22;69.31
50484;BME280;36409;52.168;20.878;2022-09-09T06:19:56;100277.82;;;12.24;69.02
50484;BME280;36409;52.168;20.878;2022-09-09T06:22:28;100277.78;;;12.25;69.43
50484;BME280;36409;52.168;20.878;2022-09-09T06:25:00;100282.07;;;12.28;69.09
50484;BME280;36409;52.168;20.878;2022-09-09T06:27:32;100280.27;;;12.31;69.43
50484;BME280;36409;52.168;20.878;2022-09-09T06:30:06;100277.61;;;12.33;69.43
50484;BME280;36409;52.168;20.878;2022-09-09T06:32:40;100278.45;;;12.33;68.45
50484;BME280;36409;52.168;20.878;2022-09-09T06:35:13;100283.67;;;12.35;69.72
50484;BME280;36409;52.168;20.878;2022-09-09T06:37:47;100284.45;;;12.39;69.50
50484;BME280;36409;52.168;20.878;2022-09-09T06:40:21;100287.92;;;12.39;68.80
50484;BME280;36409;52.168;20.878;2022-09-09T06:42:53;100284.34;;;12.43;68.98
50484;BME280;36409;52.168;20.878;2022-09-09T06:45:38;100284.30;;;12.45;69.17
50484;BME280;36409;52.168;20.878;2022-09-09T06:48:11;100285.12;;;12.48;68.73
50484;BME280;36409;52.168;20.878;2022-09-09T06:50:43;100288.53;;;12.50;69.83
50484;BME280;36409;52.168;20.878;2022-09-09T06:53:18;100291.09;;;12.54;69.28
50484;BME280;36409;52.168;20.878;2022-09-09T06:55:53;100281.49;;;12.54;68.98
50484;BME280;36409;52.168;20.878;2022-09-09T06:58:27;100291.02;;;12.57;69.34
50484;BME280;36409;52.168;20.878;2022-09-09T07:01:07;100287.47;;;12.59;69.27
50484;BME280;36409;52.168;20.878;2022-09-09T07:03:40;100288.30;;;12.61;69.37
50484;BME280;36409;52.168;20.878;2022-09-09T07:06:16;100293.47;;;12.64;69.57
50484;BME280;36409;52.168;20.878;2022-09-09T07:09:05;100295.09;;;12.69;69.29
50484;BME280;36409;52.168;20.878;2022-09-09T07:11:43;100308.07;;;12.73;69.39
50484;BME280;36409;52.168;20.878;2022-09-09T07:14:16;100308.88;;;12.77;70.21
50484;BME280;36409;52.168;20.878;2022-09-09T07:16:50;100309.69;;;12.79;69.52
50484;BME280;36409;52.168;20.878;2022-09-09T07:19:29;100309.67;;;12.80;69.92
50484;BME280;36409;52.168;20.878;2022-09-09T07:22:01;100307.83;;;12.84;69.76
50484;BME280;36409;52.168;20.878;2022-09-09T07:24:34;100311.27;;;12.86;69.16
50484;BME280;36409;52.168;20.878;2022-09-09T07:27:07;100312.13;;;12.87;69.93
50484;BME280;36409;52.168;20.878;2022-09-09T07:29:40;100305.04;;;12.90;70.03
50484;BME280;36409;52.168;20.878;2022-09-09T07:32:13;100299.62;;;12.98;69.04
50484;BME280;36409;52.168;20.878;2022-09-09T07:34:46;100302.09;;;13.04;70.18
50484;BME280;36409;52.168;20.878;2022-09-09T07:37:19;100302.88;;;13.08;69.04
50484;BME280;36409;52.168;20.878;2022-09-09T07:39:53;100300.19;;;13.11;70.44
50484;BME280;36409;52.168;20.878;2022-09-09T07:42:25;100304.35;;;13.18;70.28
50484;BME280;36409;52.168;20.878;2022-09-09T07:44:59;100309.47;;;13.23;69.71
50484;BME280;36409;52.168;20.878;2022-09-09T07:47:31;100313.70;;;13.28;70.30
50484;BME280;36409;52.168;20.878;2022-09-09T07:50:06;100326.73;;;13.32;70.01
50484;BME280;36409;52.168;20.878;2022-09-09T07:52:37;100331.92;;;13.33;69.40
50484;BME280;36409;52.168;20.878;2022-09-09T07:55:10;100335.48;;;13.31;69.94
50484;BME280;36409;52.168;20.878;2022-09-09T07:57:42;100339.06;;;13.28;70.41
50484;BME280;36409;52.168;20.878;2022-09-09T08:00:16;100345.15;;;13.28;69.64
50484;BME280;36409;52.168;20.878;2022-09-09T08:02:50;100357.36;;;13.29;69.52
50484;BME280;36409;52.168;20.878;2022-09-09T08:05:25;100347.70;;;13.32;69.70
50484;BME280;36409;52.168;20.878;2022-09-09T08:07:57;100352.94;;;13.32;70.26
50484;BME280;36409;52.168;20.878;2022-09-09T08:10:31;100350.27;;;13.33;69.41
50484;BME280;36409;52.168;20.878;2022-09-09T08:13:03;100355.44;;;13.36;69.73
50484;BME280;36409;52.168;20.878;2022-09-09T08:15:48;100347.52;;;13.38;70.15
50484;BME280;36409;52.168;20.878;2022-09-09T08:18:22;100357.92;;;13.42;70.45
50484;BME280;36409;52.168;20.878;2022-09-09T08:20:55;100356.20;;;13.41;70.04
50484;BME280;36409;52.168;20.878;2022-09-09T08:23:27;100354.38;;;13.45;70.33
50484;BME280;36409;52.168;20.878;2022-09-09T08:26:09;100357.77;;;13.49;70.53
50484;BME280;36409;52.168;20.878;2022-09-09T08:28:43;100347.19;;;13.52;70.68
50484;BME280;36409;52.168;20.878;2022-09-09T08:31:18;100351.38;;;13.59;69.79
50484;BME280;36409;52.168;20.878;2022-09-09T08:33:54;100354.70;;;13.66;69.67
50484;BME280;36409;52.168;20.878;2022-09-09T08:36:28;100356.38;;;13.68;69.72
50484;BME280;36409;52.168;20.878;2022-09-09T08:39:02;100365.91;;;13.71;70.47
50484;BME280;36409;52.168;20.878;2022-09-09T08:41:46;100357.97;;;13.74;70.57
50484;BME280;36409;52.168;20.878;2022-09-09T08:44:26;100357.89;;;13.77;70.67
50484;BME280;36409;52.168;20.878;2022-09-09T08:47:07;100370.00;;;13.81;70.94
50484;BME280;36409;52.168;20.878;2022-09-09T08:50:07;100363.85;;;13.82;70.77
50484;BME280;36409;52.168;20.878;2022-09-09T08:52:54;100361.20;;;13.84;70.33
50484;BME280;36409;52.168;20.878;2022-09-09T08:55:32;100360.20;;;13.88;70.27
50484;BME280;36409;52.168;20.878;2022-09-09T08:58:13;100358.20;;;13.96;70.86
50484;BME280;36409;52.168;20.878;2022-09-09T09:01:05;100361.58;;;14.01;70.68
50484;BME280;36409;52.168;20.878;2022-09-09T09:03:56;100359.70;;;14.07;70.22
50484;BME280;36409;52.168;20.878;2022-09-09T09:06:34;100362.97;;;14.13;70.25
50484;BME280;36409;52.168;20.878;2022-09-09T09:09:21;100367.30;;;14.16;69.97
50484;BME280;36409;52.168;20.878;2022-09-09T09:11:57;100374.30;;;14.15;70.18
50484;BME280;36409;52.168;20.878;2022-09-09T09:14:37;100369.95;;;14.14;70.57
50484;BME280;36409;52.168;20.878;2022-09-09T09:17:14;100375.20;;;14.14;70.57
50484;BME280;36409;52.168;20.878;2022-09-09T09:19:50;100384.77;;;14.17;70.05
50484;BME280;36409;52.168;20.878;2022-09-09T09:22:29;100389.83;;;14.23;70.14
50484;BME280;36409;52.168;20.878;2022-09-09T09:25:13;100386.22;;;14.27;70.88
50484;BME280;36409;52.168;20.878;2022-09-09T09:27:55;100383.67;;;14.24;69.91
50484;BME280;36409;52.168;20.878;2022-09-09T09:30:36;100383.67;;;14.24;69.70
50484;BME280;36409;52.168;20.878;2022-09-09T09:33:16;100382.77;;;14.25;70.21
50484;BME280;36409;52.168;20.878;2022-09-09T09:35:51;100382.83;;;14.24;70.33
50484;BME280;36409;52.168;20.878;2022-09-09T09:38:26;100386.11;;;14.30;70.43
50484;BME280;36409;52.168;20.878;2022-09-09T09:41:30;100381.67;;;14.32;70.16
50484;BME280;36409;52.168;20.878;2022-09-09T09:44:03;100386.98;;;14.31;70.10
50484;BME280;36409;52.168;20.878;2022-09-09T09:46:35;100396.61;;;14.30;70.45
50484;BME280;36409;52.168;20.878;2022-09-09T09:49:14;100391.41;;;14.29;70.37
50484;BME280;36409;52.168;20.878;2022-09-09T09:51:47;100388.65;;;14.33;70.32
50484;BME280;36409;52.168;20.878;2022-09-09T09:54:26;100391.11;;;14.40;70.24
50484;BME280;36409;52.168;20.878;2022-09-09T09:57:11;100384.84;;;14.44;69.75
50484;BME280;36409;52.168;20.878;2022-09-09T09:59:44;100386.54;;;14.46;70.32
50484;BME280;36409;52.168;20.878;2022-09-09T10:02:24;100392.55;;;14.50;70.34
50484;BME280;36409;52.168;20.878;2022-09-09T10:05:06;100391.65;;;14.51;70.22
50484;BME280;36409;52.168;20.878;2022-09-09T10:07:38;100396.02;;;14.50;69.74
50484;BME280;36409;52.168;20.878;2022-09-09T10:10:13;100406.59;;;14.49;70.22
50484;BME280;36409;52.168;20.878;2022-09-09T10:12:55;100395.18;;;14.50;70.52
50484;BME280;36409;52.168;20.878;2022-09-09T10:15:35;100401.25;;;14.52;70.07
50484;BME280;36409;52.168;20.878;2022-09-09T10:18:24;100402.91;;;14.55;70.49
50484;BME280;36409;52.168;20.878;2022-09-09T10:21:08;100408.98;;;14.57;69.91
50484;BME280;36409;52.168;20.878;2022-09-09T10:23:56;100410.73;;;14.56;69.88
50484;BME280;36409;52.168;20.878;2022-09-09T10:26:42;100412.41;;;14.59;70.62
50484;BME280;36409;52.168;20.878;2022-09-09T10:29:32;100415.00;;;14.60;70.60
50484;BME280;36409;52.168;20.878;2022-09-09T10:32:22;100426.21;;;14.65;70.55
50484;BME280;36409;52.168;20.878;2022-09-09T10:35:04;100434.10;;;14.67;70.48
50484;BME280;36409;52.168;20.878;2022-09-09T10:37:52;100435.77;;;14.70;70.11
50484;BME280;36409;52.168;20.878;2022-09-09T10:40:34;100441.08;;;14.68;69.90
50484;BME280;36409;52.168;20.878;2022-09-09T10:43:19;100438.56;;;14.63;70.69
50484;BME280;36409;52.168;20.878;2022-09-09T10:46:03;100443.84;;;14.62;70.89
50484;BME280;36409;52.168;20.878;2022-09-09T10:49:01;100446.44;;;14.63;70.67
50484;BME280;36409;52.168;20.878;2022-09-09T10:51:42;100449.91;;;14.64;70.81
50484;BME280;36409;52.168;20.878;2022-09-09T10:54:28;100448.13;;;14.64;70.95
50484;BME280;36409;52.168;20.878;2022-09-09T10:57:07;100447.23;;;14.67;70.81
50484;BME280;36409;52.168;20.878;2022-09-09T10:59:43;100455.95;;;14.67;70.53
50484;BME280;36409;52.168;20.878;2022-09-09T11:02:22;100460.37;;;14.67;70.16
50484;BME280;36409;52.168;20.878;2022-09-09T11:05:00;100454.20;;;14.66;70.81
50484;BME280;36409;52.168;20.878;2022-09-09T11:07:38;100460.36;;;14.65;70.56
50484;BME280;36409;52.168;20.878;2022-09-09T11:10:20;100460.36;;;14.65;70.47
50484;BME280;36409;52.168;20.878;2022-09-09T11:12:56;100462.98;;;14.65;71.04
50484;BME280;36409;52.168;20.878;2022-09-09T11:15:36;100463.89;;;14.64;70.25
50484;BME280;36409;52.168;20.878;2022-09-09T11:18:19;100462.99;;;14.67;70.74
50484;BME280;36409;52.168;20.878;2022-09-09T11:20:56;100455.94;;;14.69;70.33
50484;BME280;36409;52.168;20.878;2022-09-09T11:23:36;100463.70;;;14.72;70.83
50484;BME280;36409;52.168;20.878;2022-09-09T11:26:16;100463.67;;;14.74;70.82
50484;BME280;36409;52.168;20.878;2022-09-09T11:29:04;100459.95;;;14.81;70.82
50484;BME280;36409;52.168;20.878;2022-09-09T11:31:46;100471.27;;;14.83;71.32
50484;BME280;36409;52.168;20.878;2022-09-09T11:34:47;100470.45;;;14.81;70.31
50484;BME280;36409;52.168;20.878;2022-09-09T11:37:46;100469.49;;;14.83;70.88
50484;BME280;36409;52.168;20.878;2022-09-09T11:40:25;100467.55;;;14.90;70.62
50484;BME280;36409;52.168;20.878;2022-09-09T11:43:09;100478.67;;;14.98;70.50
50484;BME280;36409;52.168;20.878;2022-09-09T11:45:50;100470.70;;;15.02;70.45
50484;BME280;36409;52.168;20.878;2022-09-09T11:48:34;100474.91;;;15.07;70.93
50484;BME280;36409;52.168;20.878;2022-09-09T11:51:09;100469.59;;;15.09;70.99
50484;BME280;36409;52.168;20.878;2022-09-09T11:53:51;100471.16;;;15.14;70.74
50484;BME280;36409;52.168;20.878;2022-09-09T11:56:29;100464.97;;;15.17;70.57
50484;BME280;36409;52.168;20.878;2022-09-09T11:59:04;100474.46;;;15.21;71.16
50484;BME280;36409;52.168;20.878;2022-09-09T12:01:38;100475.19;;;15.26;70.56
50484;BME280;36409;52.168;20.878;2022-09-09T12:07:21;100469.11;;;15.24;71.27
50484;BME280;36409;52.168;20.878;2022-09-09T12:09:59;100472.80;;;15.19;70.50
50484;BME280;36409;52.168;20.878;2022-09-09T12:12:34;100472.89;;;15.16;70.41
50484;BME280;36409;52.168;20.878;2022-09-09T12:15:24;100472.27;;;15.07;70.92
50484;BME280;36409;52.168;20.878;2022-09-09T12:17:59;100479.31;;;15.07;71.08
50484;BME280;36409;52.168;20.878;2022-09-09T12:20:35;100476.56;;;15.10;71.19
50484;BME280;36409;52.168;20.878;2022-09-09T12:23:22;100481.83;;;15.10;71.41
50484;BME280;36409;52.168;20.878;2022-09-09T12:26:07;100482.70;;;15.10;70.98
50484;BME280;36409;52.168;20.878;2022-09-09T12:28:52;100476.48;;;15.13;71.07
50484;BME280;36409;52.168;20.878;2022-09-09T12:31:33;100475.48;;;15.17;70.47
50484;BME280;36409;52.168;20.878;2022-09-09T12:34:13;100476.30;;;15.19;71.05
50484;BME280;36409;52.168;20.878;2022-09-09T12:36:52;100474.52;;;15.20;71.27
50484;BME280;36409;52.168;20.878;2022-09-09T12:39:31;100470.02;;;15.23;71.58
50484;BME280;36409;52.168;20.878;2022-09-09T12:42:14;100461.16;;;15.26;70.71
50484;BME280;36409;52.168;20.878;2022-09-09T12:45:16;100463.70;;;15.29;70.59
50484;BME280;36409;52.168;20.878;2022-09-09T12:47:51;100462.70;;;15.33;71.21
50484;BME280;36409;52.168;20.878;2022-09-09T12:50:27;100463.31;;;15.41;70.95
50484;BME280;36409;52.168;20.878;2022-09-09T12:53:04;100464.94;;;15.46;71.52
50484;BME280;36409;52.168;20.878;2022-09-09T12:55:48;100466.53;;;15.50;71.13
50484;BME280;36409;52.168;20.878;2022-09-09T12:58:21;100474.34;;;15.53;70.82
50484;BME280;36409;52.168;20.878;2022-09-09T13:00:55;100478.63;;;15.55;71.45
50484;BME280;36409;52.168;20.878;2022-09-09T13:03:28;100467.16;;;15.58;71.34
50484;BME280;36409;52.168;20.878;2022-09-09T13:06:12;100469.73;;;15.59;71.44
50484;BME280;36409;52.168;20.878;2022-09-09T13:08:45;100465.31;;;15.60;71.08
50484;BME280;36409;52.168;20.878;2022-09-09T13:11:19;100466.09;;;15.64;71.56
50484;BME280;36409;52.168;20.878;2022-09-09T13:13:56;100465.13;;;15.66;71.47
50484;BME280;36409;52.168;20.878;2022-09-09T13:16:29;100471.14;;;15.70;71.54
50484;BME280;36409;52.168;20.878;2022-09-09T13:19:09;100452.72;;;15.70;71.26
50484;BME280;36409;52.168;20.878;2022-09-09T13:21:45;100449.99;;;15.73;71.25
50484;BME280;36409;52.168;20.878;2022-09-09T13:24:30;100454.44;;;15.71;70.95
50484;BME280;36409;52.168;20.878;2022-09-09T13:27:05;100455.41;;;15.68;71.03
50484;BME280;36409;52.168;20.878;2022-09-09T13:29:56;100452.12;;;15.62;71.19
50484;BME280;36409;52.168;20.878;2022-09-09T13:32:29;100446.90;;;15.60;71.08
50484;BME280;36409;52.168;20.878;2022-09-09T13:35:03;100448.62;;;15.61;71.67
50484;BME280;36409;52.168;20.878;2022-09-09T13:37:38;100459.12;;;15.63;70.89
50484;BME280;36409;52.168;20.878;2022-09-09T13:40:19;100460.18;;;15.57;71.00